Time;durP1;ratioP1;P1;durP2;ratioP2;P2;SDS_P1;SDS_P2;PMS_P1;PMS_P2;Temp;Humidity;BMP_temperature;BMP_pressure;BME280_temperature;BME280_humidity;BME280_pressure;Samples;Min_cycle;Max_cycle;Signal;HPM_P1;HPM_P2
2023/03/31 00:02:41;;;;;;;6.32;3.25;;;;;;;;;;10623356;27;20091;-80
2023/03/31 00:08:06;;;;;;;5.38;2.47;;;;;;;;;;10621098;27;20434;-80
2023/03/31 00:13:20;;;;;;;8.93;3.97;;;;;;;;;;10640795;27;20137;-80
2023/03/31 00:18:35;;;;;;;3.78;2.08;;;;;;;;;;10639606;27;20429;-80
2023/03/31 00:23:44;;;;;;;8.70;3.85;;;;;;;;;;10617380;27;20050;-80
2023/03/31 00:29:01;;;;;;;9.15;3.20;;;;;;;;;;10628099;27;20454;-79
2023/03/31 00:34:12;;;;;;;7.47;3.47;;;;;;;;;;10618233;27;20060;-77
2023/03/31 00:39:17;;;;;;;10.32;4.10;;;;;;;;;;10622477;27;20038;-77
2023/03/31 00:44:37;;;;;;;7.70;3.70;;;;;;;;;;10644373;27;20047;-76
2023/03/31 00:49:45;;;;;;;6.82;3.42;;;;;;;;;;10624276;27;20473;-77
2023/03/31 00:54:51;;;;;;;7.47;3.72;;;;;;;;;;10624589;27;20039;-79
2023/03/31 01:00:15;;;;;;;8.85;3.38;;;;;;;;;;10638704;27;20046;-80
2023/03/31 01:05:29;;;;;;;5.70;2.33;;;;;;;;;;10636717;27;20037;-78
2023/03/31 01:10:40;;;;;;;4.50;2.45;;;;;;;;;;10637387;27;20106;-77
2023/03/31 01:15:55;;;;;;;6.80;3.65;;;;;;;;;;10626989;27;20035;-77
2023/03/31 01:21:30;;;;;;;6.20;2.97;;;;;;;;;;10632578;27;20050;-77
2023/03/31 01:26:57;;;;;;;6.22;3.33;;;;;;;;;;10605087;27;20533;-77
2023/03/31 01:32:22;;;;;;;11.93;4.03;;;;;;;;;;10618641;27;20027;-77
2023/03/31 01:37:39;;;;;;;8.00;3.15;;;;;;;;;;10634196;27;20522;-78
2023/03/31 01:48:17;;;;;;;9.05;3.08;;;;;;;;;;10651241;27;20058;-78
2023/03/31 01:53:32;;;;;;;6.18;2.67;;;;;;;;;;10635948;27;20050;-78
2023/03/31 01:58:39;;;;;;;4.05;1.83;;;;;;;;;;10649807;27;20169;-78
2023/03/31 02:04:01;;;;;;;9.07;4.55;;;;;;;;;;10645280;27;20055;-78
2023/03/31 02:09:16;;;;;;;5.28;3.20;;;;;;;;;;10638948;27;20035;-78
2023/03/31 02:14:27;;;;;;;9.73;3.80;;;;;;;;;;10623052;27;20513;-78
2023/03/31 02:19:44;;;;;;;6.25;3.10;;;;;;;;;;10621795;27;20051;-78
2023/03/31 02:24:51;;;;;;;9.43;4.03;;;;;;;;;;10636776;27;20063;-78
2023/03/31 02:30:11;;;;;;;6.88;2.65;;;;;;;;;;10632759;27;20296;-78
2023/03/31 02:35:21;;;;;;;8.52;3.58;;;;;;;;;;10646295;27;20069;-78
2023/03/31 02:40:31;;;;;;;9.57;4.30;;;;;;;;;;10619394;27;20031;-76
2023/03/31 02:46:00;;;;;;;7.70;3.67;;;;;;;;;;10624193;27;20045;-77
2023/03/31 02:51:30;;;;;;;7.03;2.92;;;;;;;;;;10616449;27;20037;-77
2023/03/31 02:56:49;;;;;;;7.65;2.92;;;;;;;;;;10628126;27;20046;-77
2023/03/31 03:02:10;;;;;;;9.75;2.78;;;;;;;;;;10639886;27;20031;-78
2023/03/31 03:07:20;;;;;;;10.43;3.17;;;;;;;;;;10615883;27;20050;-78
2023/03/31 03:12:35;;;;;;;8.30;4.47;;;;;;;;;;10650511;27;20487;-78
2023/03/31 03:17:43;;;;;;;7.85;3.90;;;;;;;;;;10645862;27;20111;-78
2023/03/31 03:22:56;;;;;;;5.47;2.30;;;;;;;;;;10627389;27;20038;-78
2023/03/31 03:28:06;;;;;;;8.25;3.03;;;;;;;;;;10648309;27;20075;-77
2023/03/31 03:33:15;;;;;;;7.03;3.15;;;;;;;;;;10644100;27;20497;-77
2023/03/31 03:38:36;;;;;;;5.60;3.08;;;;;;;;;;10649154;27;20130;-78
2023/03/31 03:43:46;;;;;;;6.73;3.13;;;;;;;;;;10647723;27;20027;-77
2023/03/31 03:48:52;;;;;;;7.07;3.58;;;;;;;;;;10626213;27;20043;-78
2023/03/31 03:54:06;;;;;;;3.75;2.10;;;;;;;;;;10628915;27;20091;-77
2023/03/31 03:59:27;;;;;;;5.93;3.00;;;;;;;;;;10627338;27;20038;-76
2023/03/31 04:04:38;;;;;;;10.80;4.40;;;;;;;;;;10625198;27;20547;-78
2023/03/31 04:09:42;;;;;;;5.70;2.55;;;;;;;;;;10627601;27;20066;-78
2023/03/31 04:14:46;;;;;;;;;;;;;;;;;;10650475;27;20039;-77
2023/03/31 04:20:04;;;;;;;13.97;4.90;;;;;;;;;;10647565;27;19926;-78
2023/03/31 04:25:18;;;;;;;9.35;4.00;;;;;;;;;;10641496;27;20326;-77
2023/03/31 04:30:38;;;;;;;17.05;4.70;;;;;;;;;;10626972;27;20635;-77
2023/03/31 04:35:52;;;;;;;12.23;5.05;;;;;;;;;;10651670;27;20041;-76
2023/03/31 04:41:00;;;;;;;9.35;4.50;;;;;;;;;;10629127;27;20528;-75
2023/03/31 04:46:09;;;;;;;10.68;4.35;;;;;;;;;;10611108;27;20061;-75
2023/03/31 04:51:20;;;;;;;10.68;4.78;;;;;;;;;;10645161;27;20034;-77
2023/03/31 04:56:30;;;;;;;12.00;5.72;;;;;;;;;;10646410;27;20523;-75
2023/03/31 05:01:37;;;;;;;8.85;4.07;;;;;;;;;;10643099;27;20039;-76
2023/03/31 05:06:45;;;;;;;9.43;4.07;;;;;;;;;;10628707;27;20103;-78
2023/03/31 05:11:58;;;;;;;12.05;4.68;;;;;;;;;;10632291;27;20123;-77
2023/03/31 05:17:03;;;;;;;8.10;2.97;;;;;;;;;;10655330;27;20047;-78
2023/03/31 05:22:15;;;;;;;7.80;3.50;;;;;;;;;;10630324;27;20069;-77
2023/03/31 05:27:28;;;;;;;7.22;3.50;;;;;;;;;;10622673;27;20479;-77
2023/03/31 05:32:44;;;;;;;10.95;4.88;;;;;;;;;;10621572;27;20058;-77
2023/03/31 05:37:51;;;;;;;4.75;1.80;;;;;;;;;;10615893;27;20505;-77
2023/03/31 05:43:07;;;;;;;9.52;4.28;;;;;;;;;;10639504;27;20031;-77
2023/03/31 05:53:38;;;;;;;8.02;4.47;;;;;;;;;;10629872;27;20061;-76
2023/03/31 05:58:43;;;;;;;7.22;4.20;;;;;;;;;;10643144;27;20035;-76
2023/03/31 06:03:54;;;;;;;12.10;4.35;;;;;;;;;;10631043;27;20047;-77
2023/03/31 06:09:06;;;;;;;3.90;2.38;;;;;;;;;;10636534;27;20043;-76
2023/03/31 06:14:12;;;;;;;8.55;3.70;;;;;;;;;;10637483;27;20050;-77
2023/03/31 06:24:54;;;;;;;11.82;6.40;;;;;;;;;;10613798;27;20392;-76
2023/03/31 06:30:12;;;;;;;9.35;3.97;;;;;;;;;;10626687;27;20046;-77
2023/03/31 06:35:30;;;;;;;8.35;4.65;;;;;;;;;;10632743;27;20216;-78
2023/03/31 06:40:40;;;;;;;10.02;3.95;;;;;;;;;;10633095;27;20603;-76
2023/03/31 06:45:46;;;;;;;6.75;3.05;;;;;;;;;;10630011;27;20504;-77
2023/03/31 06:51:01;;;;;;;8.73;4.57;;;;;;;;;;10596415;27;20089;-77
2023/03/31 06:56:11;;;;;;;9.15;3.38;;;;;;;;;;10614949;27;20072;-75
2023/03/31 07:01:17;;;;;;;11.15;4.10;;;;;;;;;;10590254;27;20405;-77
2023/03/31 07:06:22;;;;;;;13.38;4.90;;;;;;;;;;10607167;27;20553;-77
2023/03/31 07:11:35;;;;;;;3.35;2.13;;;;;;;;;;10623335;27;20119;-78
2023/03/31 07:16:44;;;;;;;12.30;3.92;;;;;;;;;;10607744;27;20140;-77
2023/03/31 07:21:58;;;;;;;14.50;5.47;;;;;;;;;;10606921;27;20485;-76
2023/03/31 07:27:11;;;;;;;9.40;2.25;;;;;;;;;;10624382;27;20039;-77
2023/03/31 07:32:22;;;;;;;10.82;5.05;;;;;;;;;;10616230;27;20401;-78
2023/03/31 07:43:35;;;;;;;12.15;5.25;;;;;;;;;;10579345;27;20031;-77
2023/03/31 07:48:45;;;;;;;13.73;5.78;;;;;;;;;;10601031;27;20047;-77
2023/03/31 07:54:01;;;;;;;12.15;5.05;;;;;;;;;;10598870;27;20126;-77
2023/03/31 07:59:22;;;;;;;5.25;2.80;;;;;;;;;;10631339;27;20046;-77
2023/03/31 08:04:36;;;;;;;5.88;2.85;;;;;;;;;;10636559;27;20039;-77
2023/03/31 08:09:46;;;;;;;15.20;6.07;;;;;;;;;;10632460;27;20230;-77
2023/03/31 08:14:59;;;;;;;5.88;1.70;;;;;;;;;;10631619;27;20035;-77
2023/03/31 08:20:08;;;;;;;;;;;;;;;;;;10616329;27;20039;-78
2023/03/31 08:25:15;;;;;;;4.97;2.83;;;;;;;;;;10590066;27;19919;-77
2023/03/31 08:30:27;;;;;;;10.63;4.40;;;;;;;;;;10635224;27;20057;-78
2023/03/31 08:35:53;;;;;;;7.45;3.70;;;;;;;;;;10612259;27;20058;-77
2023/03/31 08:41:04;;;;;;;6.65;3.60;;;;;;;;;;10612685;27;20034;-77
2023/03/31 08:46:24;;;;;;;2.70;1.60;;;;;;;;;;10630687;27;20411;-78
2023/03/31 08:51:34;;;;;;;7.85;3.50;;;;;;;;;;10629461;27;20122;-77
2023/03/31 08:56:44;;;;;;;10.13;4.65;;;;;;;;;;10613787;27;20061;-77
2023/03/31 09:01:53;;;;;;;6.85;4.20;;;;;;;;;;10612865;27;20101;-76
2023/03/31 09:07:07;;;;;;;5.88;3.15;;;;;;;;;;10592453;27;20049;-77
2023/03/31 09:12:17;;;;;;;9.30;4.15;;;;;;;;;;10635747;27;20043;-77
2023/03/31 09:17:33;;;;;;;6.30;3.10;;;;;;;;;;10609288;27;20129;-77
2023/03/31 09:22:42;;;;;;;6.28;2.80;;;;;;;;;;10613405;27;20404;-76
2023/03/31 09:27:56;;;;;;;5.90;2.70;;;;;;;;;;10632455;27;20118;-77
2023/03/31 09:33:11;;;;;;;3.33;2.40;;;;;;;;;;10625540;27;20035;-77
2023/03/31 09:43:48;;;;;;;3.40;2.22;;;;;;;;;;10588890;27;20488;-76
2023/03/31 09:49:10;;;;;;;5.47;3.03;;;;;;;;;;10585070;27;20051;-76
2023/03/31 09:54:24;;;;;;;4.10;2.22;;;;;;;;;;10582899;27;20185;-76
2023/03/31 09:59:36;;;;;;;4.45;2.78;;;;;;;;;;10627634;27;20055;-76
2023/03/31 10:04:41;;;;;;;;;;;;;;;;;;10632914;27;20130;-76
2023/03/31 10:09:56;;;;;;;3.50;2.13;;;;;;;;;;10594372;27;19930;-77
2023/03/31 10:15:12;;;;;;;4.85;2.50;;;;;;;;;;10608263;27;22258;-77
2023/03/31 10:20:19;;;;;;;3.85;2.30;;;;;;;;;;10611222;27;20237;-77
2023/03/31 10:25:25;;;;;;;;;;;;;;;;;;10625442;27;20241;-77
2023/03/31 10:30:32;;;;;;;;;;;;;;;;;;10625494;27;20031;-76
2023/03/31 10:35:40;;;;;;;;;;;;;;;;;;10626406;27;19919;-77
2023/03/31 10:40:44;;;;;;;;;;;;;;;;;;10591048;27;19926;-77
2023/03/31 10:46:01;;;;;;;;;;;;;;;;;;10605977;27;19919;-77
2023/03/31 10:51:06;;;;;;;;;;;;;;;;;;10623892;27;20197;-77
2023/03/31 10:56:16;;;;;;;;;;;;;;;;;;10624722;27;20059;-77
2023/03/31 11:01:23;;;;;;;;;;;;;;;;;;10624941;27;20321;-75
2023/03/31 11:06:34;;;;;;;;;;;;;;;;;;10629564;27;19928;-76
2023/03/31 11:12:02;;;;;;;5.10;2.35;;;;;;;;;;10623348;27;20196;-78
2023/03/31 11:17:15;;;;;;;5.53;2.45;;;;;;;;;;10626239;27;20035;-78
2023/03/31 11:22:30;;;;;;;6.33;2.60;;;;;;;;;;10626547;27;20046;-77
2023/03/31 11:27:56;;;;;;;3.17;2.20;;;;;;;;;;10614227;27;20047;-77
2023/03/31 11:33:04;;;;;;;;;;;;;;;;;;10609131;27;20069;-77
2023/03/31 11:38:27;;;;;;;2.33;1.25;;;;;;;;;;10629021;27;20329;-77
2023/03/31 11:43:51;;;;;;;1.27;0.98;;;;;;;;;;10613946;27;20039;-77
2023/03/31 11:48:59;;;;;;;3.35;1.20;;;;;;;;;;10629717;27;20130;-76
2023/03/31 11:54:13;;;;;;;3.05;1.90;;;;;;;;;;10607264;27;20495;-76
2023/03/31 11:59:26;;;;;;;3.03;1.40;;;;;;;;;;10630201;27;20125;-76
2023/03/31 12:04:54;;;;;;;3.30;1.30;;;;;;;;;;10611708;27;20047;-77
2023/03/31 12:10:11;;;;;;;0.85;0.73;;;;;;;;;;10615646;27;20133;-77
2023/03/31 12:15:21;;;;;;;4.32;1.50;;;;;;;;;;10628975;27;20131;-77
2023/03/31 12:20:30;;;;;;;1.10;1.00;;;;;;;;;;10613022;27;20047;-81
2023/03/31 12:25:47;;;;;;;2.90;1.25;;;;;;;;;;10633116;27;20393;-79
2023/03/31 12:30:55;;;;;;;2.70;1.30;;;;;;;;;;10614715;27;20103;-78
2023/03/31 12:36:09;;;;;;;2.30;1.23;;;;;;;;;;10618096;27;20561;-79
2023/03/31 12:41:21;;;;;;;1.23;1.13;;;;;;;;;;10614325;27;20035;-80
2023/03/31 12:46:50;;;;;;;2.58;1.10;;;;;;;;;;10613858;27;20135;-79
2023/03/31 12:52:06;;;;;;;4.13;1.30;;;;;;;;;;10594325;27;20069;-79
2023/03/31 12:57:16;;;;;;;2.58;1.52;;;;;;;;;;10605416;27;20046;-78
2023/03/31 13:02:24;;;;;;;;;;;;;;;;;;10627313;27;20496;-78
2023/03/31 13:07:42;;;;;;;1.40;1.13;;;;;;;;;;10631787;27;19988;-77
2023/03/31 13:13:02;;;;;;;2.55;1.17;;;;;;;;;;10618138;27;20062;-79
2023/03/31 13:18:20;;;;;;;2.17;1.08;;;;;;;;;;10604351;27;20381;-78
2023/03/31 13:23:32;;;;;;;3.85;1.20;;;;;;;;;;10612955;27;20042;-77
2023/03/31 13:28:41;;;;;;;4.05;0.90;;;;;;;;;;10613107;27;20043;-78
2023/03/31 13:33:55;;;;;;;3.67;1.38;;;;;;;;;;10614029;27;20522;-79
2023/03/31 13:39:10;;;;;;;2.05;0.90;;;;;;;;;;10627344;27;20038;-77
2023/03/31 13:44:30;;;;;;;1.45;1.15;;;;;;;;;;10605544;27;20528;-78
2023/03/31 13:49:56;;;;;;;2.47;0.73;;;;;;;;;;10610554;27;20043;-80
2023/03/31 13:55:10;;;;;;;2.25;0.73;;;;;;;;;;10628878;27;20067;-79
2023/03/31 14:00:34;;;;;;;2.30;0.90;;;;;;;;;;10610620;27;20130;-78
2023/03/31 14:05:40;;;;;;;1.50;0.90;;;;;;;;;;10628436;27;20126;-78
2023/03/31 14:10:50;;;;;;;3.60;0.75;;;;;;;;;;10620587;27;20201;-77
2023/03/31 14:16:01;;;;;;;2.67;0.95;;;;;;;;;;10627271;27;20087;-79
2023/03/31 14:21:19;;;;;;;0.60;0.50;;;;;;;;;;10605191;27;20144;-77
2023/03/31 14:26:35;;;;;;;2.25;0.70;;;;;;;;;;10626445;27;20103;-77
2023/03/31 14:31:52;;;;;;;0.30;0.30;;;;;;;;;;10605353;27;20298;-79
2023/03/31 14:37:01;;;;;;;0.80;0.45;;;;;;;;;;10606631;27;20041;-79
2023/03/31 14:42:12;;;;;;;1.60;0.85;;;;;;;;;;10615823;27;20916;-79
2023/03/31 14:47:25;;;;;;;3.25;1.10;;;;;;;;;;10602209;27;20069;-79
2023/03/31 14:53:00;;;;;;;1.67;0.90;;;;;;;;;;10607737;27;20198;-79
2023/03/31 15:03:36;;;;;;;1.70;0.55;;;;;;;;;;10624059;27;20483;-77
2023/03/31 15:08:46;;;;;;;1.20;0.73;;;;;;;;;;10607308;27;20030;-78
2023/03/31 15:13:55;;;;;;;0.30;0.30;;;;;;;;;;10602695;27;21033;-78
2023/03/31 15:19:12;;;;;;;2.95;0.88;;;;;;;;;;10627908;27;20047;-77
2023/03/31 15:24:18;;;;;;;0.70;0.60;;;;;;;;;;10629545;27;20038;-78
2023/03/31 15:29:46;;;;;;;2.10;0.80;;;;;;;;;;10624170;27;20562;-78
2023/03/31 15:34:53;;;;;;;0.63;0.50;;;;;;;;;;10610848;27;20041;-78
2023/03/31 15:40:23;;;;;;;3.15;1.10;;;;;;;;;;10626892;27;20035;-79
2023/03/31 15:45:54;;;;;;;1.38;0.70;;;;;;;;;;10436274;27;20414;-78
2023/03/31 15:51:01;;;;;;;1.23;0.75;;;;;;;;;;10395735;28;20049;-80
2023/03/31 15:56:04;;;;;;;2.30;0.75;;;;;;;;;;10403989;28;20041;-80
2023/03/31 16:01:08;;;;;;;5.77;1.13;;;;;;;;;;10405617;28;20049;-81
2023/03/31 16:06:15;;;;;;;2.28;0.85;;;;;;;;;;10409309;28;20037;-80
2023/03/31 16:11:19;;;;;;;1.05;0.65;;;;;;;;;;10405521;28;20041;-80
2023/03/31 16:16:28;;;;;;;3.40;0.68;;;;;;;;;;10406021;28;20045;-81
2023/03/31 16:21:35;;;;;;;1.63;0.70;;;;;;;;;;10402537;28;20566;-79
2023/03/31 16:26:38;;;;;;;2.00;0.70;;;;;;;;;;10406434;28;20048;-81
2023/03/31 16:31:42;;;;;;;1.30;0.98;;;;;;;;;;10402587;28;20483;-79
2023/03/31 16:36:48;;;;;;;1.38;0.80;;;;;;;;;;10416599;28;20049;-79
2023/03/31 16:41:51;;;;;;;1.55;0.68;;;;;;;;;;10412110;28;20064;-82
2023/03/31 16:46:55;;;;;;;3.55;1.10;;;;;;;;;;10419347;28;20041;-79
2023/03/31 16:51:57;;;;;;;1.00;0.90;;;;;;;;;;10409054;28;20069;-81
2023/03/31 16:57:01;;;;;;;3.83;1.50;;;;;;;;;;10374058;28;20052;-81
2023/03/31 17:02:06;;;;;;;0.63;0.50;;;;;;;;;;10382560;28;20121;-81
2023/03/31 17:07:19;;;;;;;0.35;0.35;;;;;;;;;;10379901;28;20046;-81
2023/03/31 17:12:50;;;;;;;1.05;0.47;;;;;;;;;;10384657;28;20132;-80
2023/03/31 17:18:38;;;;;;;0.20;0.20;;;;;;;;;;10380696;28;20037;-83
2023/03/31 17:23:41;;;;;;;1.50;0.40;;;;;;;;;;10377823;28;20515;-81
2023/03/31 17:28:48;;;;;;;1.85;0.60;;;;;;;;;;10377519;28;20037;-81
2023/03/31 17:33:52;;;;;;;1.67;0.40;;;;;;;;;;10384944;28;20138;-80
2023/03/31 17:38:55;;;;;;;0.63;0.40;;;;;;;;;;10392428;28;20137;-79
2023/03/31 17:43:58;;;;;;;0.67;0.40;;;;;;;;;;10424346;28;20026;-79
2023/03/31 17:49:03;;;;;;;0.67;0.40;;;;;;;;;;10433971;28;20124;-79
2023/03/31 17:54:06;;;;;;;0.47;0.43;;;;;;;;;;10416908;28;20051;-78
2023/03/31 17:59:09;;;;;;;1.58;0.68;;;;;;;;;;10415695;28;20041;-80
2023/03/31 18:04:14;;;;;;;0.40;0.40;;;;;;;;;;10412678;28;20037;-80
2023/03/31 18:09:16;;;;;;;;;;;;;;;;;;10415687;28;20060;-79
2023/03/31 18:14:19;;;;;;;0.43;0.38;;;;;;;;;;10409434;28;19925;-80
2023/03/31 18:19:24;;;;;;;1.13;0.60;;;;;;;;;;10408481;28;20226;-79
2023/03/31 18:24:27;;;;;;;1.38;0.75;;;;;;;;;;10419473;28;20041;-79
2023/03/31 18:29:30;;;;;;;2.78;0.57;;;;;;;;;;10410048;28;20045;-79
2023/03/31 18:34:35;;;;;;;1.48;0.60;;;;;;;;;;10413968;28;20064;-81
2023/03/31 18:39:38;;;;;;;1.85;0.90;;;;;;;;;;10412483;28;20052;-78
2023/03/31 18:44:41;;;;;;;1.20;0.50;;;;;;;;;;10409865;28;20136;-80
2023/03/31 18:49:46;;;;;;;1.08;0.50;;;;;;;;;;10409787;28;20542;-79
2023/03/31 18:54:58;;;;;;;1.77;0.57;;;;;;;;;;10408218;28;20038;-80
2023/03/31 19:00:02;;;;;;;1.48;0.47;;;;;;;;;;10410761;28;20423;-78
2023/03/31 19:05:07;;;;;;;0.05;0.05;;;;;;;;;;10412466;28;20041;-79
2023/03/31 19:10:11;;;;;;;3.50;0.50;;;;;;;;;;10408313;28;20554;-80
2023/03/31 19:15:14;;;;;;;0.30;0.30;;;;;;;;;;10405759;28;20578;-77
2023/03/31 19:20:18;;;;;;;0.57;0.43;;;;;;;;;;10412950;28;20406;-78
2023/03/31 19:25:23;;;;;;;2.90;0.65;;;;;;;;;;10416987;28;20037;-79
2023/03/31 19:30:28;;;;;;;2.15;0.55;;;;;;;;;;10412018;28;20194;-77
2023/03/31 19:35:33;;;;;;;2.15;0.75;;;;;;;;;;10409858;28;20037;-79
2023/03/31 19:40:36;;;;;;;3.78;0.50;;;;;;;;;;10406785;28;20075;-78
2023/03/31 19:45:41;;;;;;;2.45;0.68;;;;;;;;;;10409433;28;20211;-79
2023/03/31 19:50:47;;;;;;;0.57;0.22;;;;;;;;;;10407258;28;20055;-79
2023/03/31 19:55:56;;;;;;;1.00;0.45;;;;;;;;;;10409717;28;20032;-79
2023/03/31 20:00:59;;;;;;;1.25;0.50;;;;;;;;;;10409359;28;20184;-78
2023/03/31 20:06:05;;;;;;;1.08;0.32;;;;;;;;;;10408759;28;20108;-79
2023/03/31 20:11:12;;;;;;;3.42;1.05;;;;;;;;;;10389435;28;20430;-79
2023/03/31 20:16:16;;;;;;;0.60;0.35;;;;;;;;;;10415200;28;20112;-79
2023/03/31 20:21:21;;;;;;;3.92;0.95;;;;;;;;;;10422258;28;20102;-80
2023/03/31 20:26:25;;;;;;;1.80;0.35;;;;;;;;;;10416191;28;20045;-78
2023/03/31 20:31:28;;;;;;;2.28;0.60;;;;;;;;;;10424784;28;20346;-79
2023/03/31 20:36:33;;;;;;;3.63;0.80;;;;;;;;;;10378571;28;20069;-78
2023/03/31 20:42:11;;;;;;;2.97;0.85;;;;;;;;;;10378077;28;20112;-79
2023/03/31 20:47:14;;;;;;;3.67;0.68;;;;;;;;;;10375570;28;20215;-79
2023/03/31 20:52:19;;;;;;;3.58;0.88;;;;;;;;;;10376199;28;20038;-79
2023/03/31 20:57:23;;;;;;;3.95;0.50;;;;;;;;;;10372303;28;20052;-79
2023/03/31 21:02:26;;;;;;;6.32;0.88;;;;;;;;;;10380354;28;20471;-80
2023/03/31 21:07:31;;;;;;;2.40;0.88;;;;;;;;;;10377650;28;20043;-79
2023/03/31 21:12:33;;;;;;;1.83;0.60;;;;;;;;;;10373576;28;20046;-78
2023/03/31 21:17:46;;;;;;;1.95;0.85;;;;;;;;;;10374850;28;20045;-80
2023/03/31 21:22:50;;;;;;;2.65;0.80;;;;;;;;;;10365228;28;20037;-80
2023/03/31 21:27:53;;;;;;;3.53;1.10;;;;;;;;;;10384193;28;20451;-79
2023/03/31 21:32:56;;;;;;;1.58;0.60;;;;;;;;;;10377423;28;20081;-80
2023/03/31 21:38:02;;;;;;;0.95;0.50;;;;;;;;;;10376226;28;20420;-80
2023/03/31 21:43:06;;;;;;;3.05;0.80;;;;;;;;;;10372923;28;20077;-81
2023/03/31 21:48:09;;;;;;;4.20;1.13;;;;;;;;;;10376747;28;20265;-79
2023/03/31 21:53:13;;;;;;;;;;;;;;;;;;10373476;28;20034;-79
2023/03/31 21:58:18;;;;;;;1.83;0.52;;;;;;;;;;10372829;28;20418;-80
2023/03/31 22:03:22;;;;;;;0.57;0.30;;;;;;;;;;10377082;28;20053;-80
2023/03/31 22:08:30;;;;;;;0.57;0.38;;;;;;;;;;10376539;28;20466;-80
2023/03/31 22:13:38;;;;;;;1.55;0.40;;;;;;;;;;10371451;28;20481;-80
2023/03/31 22:18:41;;;;;;;0.93;0.40;;;;;;;;;;10371307;28;20049;-79
2023/03/31 22:23:45;;;;;;;2.10;0.82;;;;;;;;;;10376493;28;20048;-81
2023/03/31 22:28:49;;;;;;;1.42;0.50;;;;;;;;;;10371546;28;20073;-80
2023/03/31 22:33:52;;;;;;;;;;;;;;;;;;10374975;28;20042;-82
2023/03/31 22:38:55;;;;;;;0.75;0.20;;;;;;;;;;10372479;28;19937;-80
2023/03/31 22:43:59;;;;;;;2.15;0.65;;;;;;;;;;10376452;28;20061;-79
2023/03/31 22:49:11;;;;;;;1.08;0.45;;;;;;;;;;10367146;28;20081;-78
2023/03/31 22:54:15;;;;;;;2.78;0.60;;;;;;;;;;10351481;28;20037;-79
2023/03/31 22:59:18;;;;;;;0.55;0.55;;;;;;;;;;10372088;28;20042;-78
2023/03/31 23:04:22;;;;;;;3.40;0.40;;;;;;;;;;10378296;28;20540;-78
2023/03/31 23:09:25;;;;;;;0.30;0.30;;;;;;;;;;10367822;28;20038;-78
2023/03/31 23:14:30;;;;;;;1.23;0.50;;;;;;;;;;10377061;28;20026;-78
2023/03/31 23:19:36;;;;;;;0.30;0.20;;;;;;;;;;10366104;28;20045;-77
2023/03/31 23:24:39;;;;;;;1.20;0.30;;;;;;;;;;10380650;28;20462;-77
2023/03/31 23:29:43;;;;;;;1.75;0.50;;;;;;;;;;10370197;28;20049;-77
2023/03/31 23:34:45;;;;;;;1.58;0.30;;;;;;;;;;10377941;28;20049;-78
2023/03/31 23:39:48;;;;;;;2.53;0.28;;;;;;;;;;10371250;28;20116;-77
2023/03/31 23:44:53;;;;;;;0.80;0.32;;;;;;;;;;10361364;28;20427;-79
2023/03/31 23:50:06;;;;;;;0.57;0.22;;;;;;;;;;10374622;28;20045;-76
2023/03/31 23:55:08;;;;;;;0.65;0.20;;;;;;;;;;10349566;28;20356;-79
